createdAt,value
2023-01-07T06:17:47.888Z,1007.77
2023-01-07T06:27:48.041Z,1007.68
2023-01-07T06:37:48.207Z,1007.64
2023-01-07T06:47:48.177Z,1007.64
2023-01-07T06:57:48.030Z,1007.64
2023-01-07T07:07:48.091Z,1007.58
2023-01-07T07:17:48.092Z,1007.50
2023-01-07T07:27:48.141Z,1007.61
2023-01-07T07:37:48.092Z,1007.63
2023-01-07T07:47:48.169Z,1007.72
2023-01-07T07:57:48.050Z,1007.69
2023-01-07T08:07:48.172Z,1007.76
2023-01-07T08:17:48.137Z,1007.79
2023-01-07T08:27:47.912Z,1007.65
2023-01-07T08:37:48.172Z,1007.64
2023-01-07T08:47:48.444Z,1007.60
2023-01-07T08:57:48.258Z,1007.64
2023-01-07T09:07:48.362Z,1007.68
2023-01-07T09:17:48.532Z,1007.75
2023-01-07T09:27:48.398Z,1007.88
2023-01-07T09:37:48.186Z,1007.78
2023-01-07T09:47:48.112Z,1007.88
2023-01-07T09:57:48.278Z,1007.81
2023-01-07T10:07:48.154Z,1007.71
2023-01-07T10:17:48.243Z,1007.76
2023-01-07T10:27:48.377Z,1007.78
2023-01-07T10:37:48.437Z,1007.60
2023-01-07T10:47:48.209Z,1007.46
2023-01-07T10:57:49.499Z,1007.25
2023-01-07T11:07:48.537Z,1007.09
2023-01-07T11:17:48.292Z,1006.96
2023-01-07T11:27:48.368Z,1006.80
2023-01-07T11:37:48.429Z,1006.67
2023-01-07T11:47:48.497Z,1006.54
2023-01-07T11:57:48.374Z,1006.30
2023-01-07T12:07:48.422Z,1006.09
2023-01-07T12:17:48.262Z,1005.78
2023-01-07T12:27:48.366Z,1005.60
2023-01-07T12:37:48.309Z,1005.60
2023-01-07T12:47:48.470Z,1005.64
2023-01-07T12:57:48.503Z,1005.59
2023-01-07T13:07:48.365Z,1005.60
2023-01-07T13:17:48.586Z,1005.43
2023-01-07T13:27:48.430Z,1005.38
2023-01-07T13:37:48.275Z,1005.31
2023-01-07T13:47:48.565Z,1005.12
2023-01-07T13:57:48.310Z,1005.02
2023-01-07T14:07:48.628Z,1004.84
2023-01-07T14:17:48.456Z,1004.77
2023-01-07T14:27:48.319Z,1004.64
2023-01-07T14:37:48.389Z,1004.60
2023-01-07T14:47:48.450Z,1004.58
2023-01-07T14:57:48.507Z,1004.51
2023-01-07T15:07:48.496Z,1004.47
2023-01-07T15:17:48.281Z,1004.09
2023-01-07T15:27:48.367Z,1004.03
2023-01-07T15:37:48.678Z,1003.89
2023-01-07T15:47:48.454Z,1003.80
2023-01-07T15:57:48.503Z,1003.60
2023-01-07T16:07:48.429Z,1003.51
2023-01-07T16:17:48.476Z,1003.42
2023-01-07T16:27:48.620Z,1003.15
2023-01-07T16:37:48.588Z,1003.05
2023-01-07T16:47:48.521Z,1003.03
2023-01-07T16:57:48.586Z,1002.85
2023-01-07T17:07:48.632Z,1002.58
2023-01-07T17:17:48.678Z,1002.70
2023-01-07T17:27:48.699Z,1002.56
2023-01-07T17:37:48.787Z,1002.57
2023-01-07T17:47:48.604Z,1002.49
2023-01-07T17:57:48.573Z,1002.33
2023-01-07T18:07:48.753Z,1002.13
2023-01-07T18:17:48.820Z,1002.01
2023-01-07T18:27:48.632Z,1001.99
2023-01-07T18:37:48.624Z,1001.78
2023-01-07T18:47:48.690Z,1001.78
2023-01-07T18:57:48.626Z,1001.73
2023-01-07T19:07:48.725Z,1001.55
2023-01-07T19:17:48.590Z,1001.71
